createdAt,value
2022-07-30T00:00:23.802Z,3.80
2022-07-30T00:01:17.718Z,3.30
2022-07-30T00:02:16.647Z,3.40
2022-07-30T00:03:16.654Z,3.40
2022-07-30T00:04:16.620Z,3.60
2022-07-30T00:05:16.577Z,3.80
2022-07-30T00:06:16.568Z,3.90
2022-07-30T00:07:16.565Z,3.10
2022-07-30T00:08:16.593Z,3.80
2022-07-30T00:09:16.529Z,3.00
2022-07-30T00:10:16.508Z,3.90
2022-07-30T00:11:16.512Z,3.30
2022-07-30T00:12:16.505Z,4.10
2022-07-30T00:13:16.464Z,4.10
2022-07-30T00:14:16.464Z,3.30
2022-07-30T00:15:16.455Z,3.50
2022-07-30T00:16:16.492Z,4.40
2022-07-30T00:17:16.414Z,3.10
2022-07-30T00:18:16.434Z,3.40
2022-07-30T00:19:16.413Z,3.40
2022-07-30T00:20:16.374Z,3.10
2022-07-30T00:21:34.587Z,3.90
2022-07-30T00:22:17.418Z,3.20
2022-07-30T00:23:16.364Z,3.70
2022-07-30T00:24:16.353Z,3.40
2022-07-30T00:25:16.342Z,3.80
2022-07-30T00:26:16.343Z,3.40
2022-07-30T00:27:16.292Z,3.70
2022-07-30T00:28:16.312Z,3.90
2022-07-30T00:29:16.291Z,3.30
2022-07-30T00:30:16.252Z,3.30
2022-07-30T00:31:16.355Z,4.00
2022-07-30T00:32:16.271Z,5.70
2022-07-30T00:33:16.232Z,3.60
2022-07-30T00:34:16.197Z,3.90
2022-07-30T00:35:16.199Z,4.30
2022-07-30T00:36:16.282Z,3.30
2022-07-30T00:37:16.192Z,3.60
2022-07-30T00:38:16.170Z,3.70
2022-07-30T00:39:16.172Z,5.20
2022-07-30T00:40:16.120Z,3.80
2022-07-30T00:41:16.161Z,3.40
2022-07-30T00:42:16.114Z,3.40
2022-07-30T00:43:16.093Z,3.30
2022-07-30T00:44:16.065Z,4.00
2022-07-30T00:45:16.094Z,3.30
2022-07-30T00:46:16.082Z,3.30
2022-07-30T00:47:16.029Z,3.90
2022-07-30T00:48:16.007Z,4.40
2022-07-30T00:49:16.069Z,3.10
2022-07-30T00:50:16.011Z,3.90
2022-07-30T00:51:16.035Z,3.70
2022-07-30T00:52:16.006Z,3.80
2022-07-30T00:53:15.976Z,4.00
2022-07-30T00:54:15.935Z,4.30
2022-07-30T00:55:15.924Z,4.00
2022-07-30T00:56:15.904Z,3.00
2022-07-30T00:57:15.934Z,3.30
2022-07-30T00:58:15.923Z,4.40
2022-07-30T00:59:15.883Z,4.40
2022-07-30T01:00:15.875Z,3.60
2022-07-30T01:01:15.914Z,3.90
2022-07-30T01:02:15.977Z,3.80
2022-07-30T01:03:15.815Z,3.50
2022-07-30T01:04:15.825Z,3.50
2022-07-30T01:05:15.825Z,4.00
2022-07-30T01:06:15.774Z,3.60
2022-07-30T01:07:15.773Z,3.80
2022-07-30T01:08:15.769Z,4.30
2022-07-30T01:09:15.752Z,3.70
2022-07-30T01:10:15.765Z,3.70
2022-07-30T01:11:15.742Z,3.40
2022-07-30T01:12:15.712Z,5.40
2022-07-30T01:13:15.713Z,3.60
2022-07-30T01:14:15.688Z,3.50
2022-07-30T01:15:15.675Z,3.20
2022-07-30T01:16:15.744Z,3.60
2022-07-30T01:17:15.670Z,3.30
2022-07-30T01:18:15.670Z,3.90
2022-07-30T01:19:15.627Z,4.30
2022-07-30T01:20:15.590Z,3.30
2022-07-30T01:21:15.649Z,3.50
2022-07-30T01:22:15.619Z,4.60
2022-07-30T01:23:15.596Z,4.40
2022-07-30T01:24:15.540Z,4.00
2022-07-30T01:25:15.538Z,3.70
2022-07-30T01:26:15.518Z,3.60
2022-07-30T01:27:19.387Z,3.80
2022-07-30T01:28:18.607Z,4.40
2022-07-30T01:29:15.487Z,3.80
2022-07-30T01:30:15.530Z,3.70
2022-07-30T01:31:15.518Z,4.30
2022-07-30T01:32:15.449Z,4.40
2022-07-30T01:33:15.448Z,3.50
2022-07-30T01:34:15.414Z,4.80
2022-07-30T01:35:15.472Z,4.30
2022-07-30T01:36:15.410Z,4.30
2022-07-30T01:37:15.375Z,4.50
2022-07-30T01:38:15.355Z,4.40
2022-07-30T01:39:15.410Z,5.30
2022-07-30T01:40:15.336Z,4.40
2022-07-30T01:41:15.371Z,4.20
2022-07-30T01:42:15.326Z,4.30
2022-07-30T01:43:15.322Z,4.60
2022-07-30T01:44:15.279Z,3.60
2022-07-30T01:45:16.315Z,5.40
2022-07-30T01:46:15.304Z,4.10
2022-07-30T01:47:15.236Z,4.20
2022-07-30T01:48:15.224Z,3.90
2022-07-30T01:49:15.395Z,4.90
2022-07-30T01:50:15.233Z,5.30
2022-07-30T01:51:15.259Z,3.90
2022-07-30T01:52:15.209Z,3.90
2022-07-30T01:53:15.174Z,3.80
2022-07-30T01:54:15.190Z,4.10
2022-07-30T01:55:17.453Z,4.10
2022-07-30T01:56:16.788Z,4.20
2022-07-30T01:57:15.110Z,4.00
2022-07-30T01:58:15.140Z,4.90
2022-07-30T01:59:15.087Z,4.30
2022-07-30T02:00:15.072Z,5.80
2022-07-30T02:01:15.160Z,5.40
2022-07-30T02:02:18.149Z,4.90
2022-07-30T02:03:15.087Z,5.20
2022-07-30T02:04:15.021Z,5.60
2022-07-30T02:05:15.028Z,4.80
2022-07-30T02:06:14.989Z,5.20
2022-07-30T02:07:15.026Z,4.50
2022-07-30T02:08:14.960Z,4.60
2022-07-30T02:09:14.970Z,5.50
2022-07-30T02:10:14.935Z,6.40
2022-07-30T02:11:14.961Z,6.00
2022-07-30T02:12:15.029Z,5.40
2022-07-30T02:13:14.932Z,5.50
2022-07-30T02:14:14.919Z,5.90
2022-07-30T02:15:14.880Z,5.20
2022-07-30T02:16:14.929Z,5.90
2022-07-30T02:17:18.723Z,5.20
2022-07-30T02:18:14.826Z,5.10
2022-07-30T02:19:14.862Z,6.00
2022-07-30T02:20:14.796Z,5.00
2022-07-30T02:21:14.895Z,4.70
2022-07-30T02:22:15.247Z,4.80
2022-07-30T02:23:14.804Z,4.70
2022-07-30T02:24:14.782Z,4.40
2022-07-30T02:25:14.764Z,5.30
2022-07-30T02:26:14.725Z,5.10
2022-07-30T02:27:14.713Z,4.90
2022-07-30T02:28:14.726Z,5.10
2022-07-30T02:29:14.711Z,6.70
2022-07-30T02:30:14.670Z,4.60
2022-07-30T02:31:17.288Z,4.70
2022-07-30T02:32:14.697Z,4.60
2022-07-30T02:33:14.679Z,6.40
2022-07-30T02:34:14.652Z,6.30
2022-07-30T02:35:14.652Z,4.50
2022-07-30T02:36:14.593Z,4.80
2022-07-30T02:37:14.607Z,5.50
2022-07-30T02:38:14.566Z,4.90
2022-07-30T02:39:14.572Z,5.00
2022-07-30T02:40:14.545Z,6.40
2022-07-30T02:41:14.548Z,4.60
2022-07-30T02:42:14.662Z,5.50
2022-07-30T02:43:14.514Z,6.30
2022-07-30T02:44:14.520Z,5.40
2022-07-30T02:45:14.499Z,5.90
2022-07-30T02:46:14.561Z,5.20
2022-07-30T02:47:14.533Z,5.50
2022-07-30T02:48:35.033Z,4.70
2022-07-30T02:49:15.567Z,5.60
2022-07-30T02:50:14.428Z,7.80
2022-07-30T02:51:14.410Z,6.60
2022-07-30T02:52:14.489Z,8.00
2022-07-30T02:53:14.379Z,6.10
2022-07-30T02:54:14.423Z,7.70
2022-07-30T02:55:14.383Z,6.70
2022-07-30T02:56:14.380Z,6.50
2022-07-30T02:57:14.363Z,8.80
2022-07-30T02:58:14.324Z,7.50
2022-07-30T02:59:14.318Z,7.80
2022-07-30T03:00:14.300Z,7.70
2022-07-30T03:01:14.382Z,6.70
2022-07-30T03:02:14.587Z,6.90
2022-07-30T03:03:14.274Z,6.60
2022-07-30T03:04:14.275Z,6.10
2022-07-30T03:05:14.256Z,5.90
2022-07-30T03:06:14.225Z,5.90
2022-07-30T03:07:14.275Z,5.70
2022-07-30T03:08:14.202Z,5.30
2022-07-30T03:09:16.889Z,5.90
2022-07-30T03:10:14.156Z,6.00
2022-07-30T03:11:14.178Z,6.60
2022-07-30T03:12:14.151Z,6.10
2022-07-30T03:13:14.145Z,6.20
2022-07-30T03:14:14.122Z,6.60
2022-07-30T03:15:14.141Z,6.60
2022-07-30T03:16:14.128Z,5.80
2022-07-30T03:17:14.082Z,6.20
2022-07-30T03:18:14.084Z,5.70
2022-07-30T03:19:14.054Z,7.00
2022-07-30T03:20:14.385Z,5.80
2022-07-30T03:21:14.065Z,7.60
2022-07-30T03:22:14.033Z,6.30
2022-07-30T03:23:14.030Z,7.90
2022-07-30T03:24:14.049Z,6.40
2022-07-30T03:25:13.971Z,6.60
2022-07-30T03:26:13.950Z,6.20
2022-07-30T03:27:13.969Z,6.50
2022-07-30T03:28:13.949Z,7.70
2022-07-30T03:29:13.921Z,8.60
2022-07-30T03:30:13.904Z,7.10
2022-07-30T03:31:13.975Z,7.10
2022-07-30T03:32:14.024Z,7.10
2022-07-30T03:33:13.887Z,6.60
2022-07-30T03:34:14.455Z,7.00
2022-07-30T03:35:17.177Z,7.00
2022-07-30T03:36:13.850Z,6.60
2022-07-30T03:37:13.943Z,7.30
2022-07-30T03:38:13.817Z,7.10
2022-07-30T03:39:13.787Z,6.60
2022-07-30T03:40:13.770Z,6.60
2022-07-30T03:41:13.796Z,6.00
2022-07-30T03:42:13.778Z,6.70
2022-07-30T03:43:18.367Z,6.10
2022-07-30T03:44:14.801Z,7.20
2022-07-30T03:45:13.725Z,9.10
2022-07-30T03:46:13.750Z,8.40
2022-07-30T03:47:13.775Z,7.30
2022-07-30T03:48:13.715Z,7.20
2022-07-30T03:49:13.710Z,8.50
2022-07-30T03:50:13.644Z,6.90
2022-07-30T03:51:13.654Z,8.20
2022-07-30T03:52:13.722Z,7.90
2022-07-30T03:53:13.612Z,6.30
2022-07-30T03:54:13.997Z,8.70
2022-07-30T03:55:13.637Z,8.20
2022-07-30T03:56:14.548Z,6.40
2022-07-30T03:57:17.684Z,8.30
2022-07-30T03:58:14.553Z,7.10
2022-07-30T03:59:13.562Z,8.50
2022-07-30T04:00:13.516Z,7.00
2022-07-30T04:01:13.531Z,10.20
2022-07-30T04:02:13.501Z,8.40
2022-07-30T04:03:13.521Z,7.10
2022-07-30T04:04:13.502Z,8.40
2022-07-30T04:05:13.483Z,8.10
2022-07-30T04:06:13.502Z,8.70
2022-07-30T04:07:13.522Z,9.10
2022-07-30T04:08:13.410Z,7.70
2022-07-30T04:09:13.427Z,7.50
2022-07-30T04:10:13.413Z,9.50
2022-07-30T04:11:13.397Z,6.70
2022-07-30T04:12:13.406Z,8.40
2022-07-30T04:13:13.417Z,7.30
2022-07-30T04:14:13.362Z,8.90
2022-07-30T04:16:05.653Z,7.50
2022-07-30T04:16:40.511Z,9.40
2022-07-30T04:17:14.360Z,10.10
2022-07-30T04:18:13.375Z,9.10
2022-07-30T04:19:13.304Z,9.20
2022-07-30T04:20:16.480Z,9.00
2022-07-30T04:21:16.980Z,7.90
2022-07-30T04:22:13.287Z,7.70
2022-07-30T04:23:13.246Z,9.90
2022-07-30T04:24:13.214Z,8.10
2022-07-30T04:25:24.066Z,7.80
2022-07-30T04:26:14.270Z,6.90
2022-07-30T04:27:13.296Z,8.10
2022-07-30T04:28:13.225Z,7.10
2022-07-30T04:29:13.512Z,7.20
2022-07-30T04:30:13.178Z,7.80
2022-07-30T04:31:13.224Z,8.40
2022-07-30T04:32:13.182Z,8.70
2022-07-30T04:33:13.128Z,9.00
2022-07-30T04:34:13.089Z,7.60
2022-07-30T04:35:13.115Z,7.70
2022-07-30T04:36:16.425Z,7.50
2022-07-30T04:37:13.114Z,8.50
2022-07-30T04:38:13.082Z,7.90
2022-07-30T04:39:13.055Z,9.80
2022-07-30T04:40:13.033Z,7.50
2022-07-30T04:41:13.000Z,7.00
2022-07-30T04:42:13.012Z,8.50
2022-07-30T04:43:13.011Z,9.50
2022-07-30T04:44:13.000Z,9.80
2022-07-30T04:45:13.889Z,9.90
2022-07-30T04:46:12.967Z,8.40
2022-07-30T04:47:12.965Z,9.80
2022-07-30T04:48:13.040Z,8.60
2022-07-30T04:49:13.089Z,9.50
2022-07-30T04:50:13.010Z,9.30
2022-07-30T04:51:12.873Z,9.80
2022-07-30T04:52:12.867Z,10.60
2022-07-30T04:53:12.849Z,8.50
2022-07-30T04:54:15.502Z,11.60
2022-07-30T04:55:12.839Z,8.50
2022-07-30T04:56:12.841Z,7.30
2022-07-30T04:57:12.789Z,8.90
2022-07-30T04:58:12.865Z,6.80
2022-07-30T04:59:12.797Z,8.00
2022-07-30T05:00:12.792Z,7.40
2022-07-30T05:01:12.809Z,7.20
2022-07-30T05:02:12.802Z,9.00
2022-07-30T05:03:12.737Z,7.30
2022-07-30T05:04:12.746Z,6.50
2022-07-30T05:05:12.796Z,6.80
2022-07-30T05:06:12.728Z,6.80
2022-07-30T05:07:12.686Z,7.30
2022-07-30T05:08:12.738Z,7.80
2022-07-30T05:09:12.659Z,6.60
2022-07-30T05:10:12.665Z,6.50
2022-07-30T05:11:12.619Z,7.50
2022-07-30T05:12:12.627Z,8.60
2022-07-30T05:13:13.087Z,7.80
2022-07-30T05:14:12.580Z,7.30
2022-07-30T05:15:12.596Z,6.30
2022-07-30T05:16:12.626Z,6.60
2022-07-30T05:17:12.537Z,6.70
2022-07-30T05:18:12.549Z,7.60
2022-07-30T05:19:12.532Z,7.40
2022-07-30T05:20:12.570Z,7.00
2022-07-30T05:21:12.518Z,5.90
2022-07-30T05:22:12.506Z,9.20
2022-07-30T05:23:12.504Z,6.70
2022-07-30T05:24:12.451Z,7.50
2022-07-30T05:25:16.080Z,7.20
2022-07-30T05:26:12.443Z,6.70
2022-07-30T05:27:12.411Z,7.90
2022-07-30T05:28:12.548Z,6.60
2022-07-30T05:29:14.972Z,7.90
2022-07-30T05:30:13.378Z,6.60
2022-07-30T05:31:12.501Z,7.20
2022-07-30T05:32:12.390Z,7.00
2022-07-30T05:33:15.714Z,6.20
2022-07-30T05:34:12.330Z,7.60
2022-07-30T05:35:12.308Z,7.70
2022-07-30T05:36:12.318Z,6.20
2022-07-30T05:37:12.319Z,7.80
2022-07-30T05:38:12.307Z,7.20
2022-07-30T05:39:12.321Z,6.70
2022-07-30T05:40:12.257Z,6.90
2022-07-30T05:41:32.373Z,7.70
2022-07-30T05:42:13.270Z,8.20
2022-07-30T05:43:12.271Z,5.80
2022-07-30T05:44:12.207Z,7.60
2022-07-30T05:45:12.206Z,7.50
2022-07-30T05:46:12.236Z,8.50
2022-07-30T05:47:12.183Z,8.20
2022-07-30T05:48:12.183Z,7.00
2022-07-30T05:49:12.308Z,7.80
2022-07-30T05:50:12.146Z,6.10
2022-07-30T05:51:12.258Z,8.20
2022-07-30T05:52:12.114Z,7.20
2022-07-30T05:53:12.105Z,8.70
2022-07-30T05:54:12.084Z,7.50
2022-07-30T05:55:12.055Z,9.70
2022-07-30T05:56:12.081Z,6.60
2022-07-30T05:57:12.024Z,7.60
2022-07-30T05:58:12.031Z,6.50
2022-07-30T05:59:12.054Z,8.80
2022-07-30T06:00:11.992Z,9.30
2022-07-30T06:01:12.307Z,7.90
2022-07-30T06:02:11.982Z,6.40
2022-07-30T06:03:11.993Z,5.80
2022-07-30T06:04:12.016Z,7.70
2022-07-30T06:05:11.931Z,6.60
2022-07-30T06:06:11.933Z,5.50
2022-07-30T06:07:11.911Z,6.90
2022-07-30T06:08:11.944Z,6.60
2022-07-30T06:09:11.873Z,10.30
2022-07-30T06:10:11.874Z,7.00
2022-07-30T06:11:11.930Z,9.70
2022-07-30T06:12:11.866Z,8.90
2022-07-30T06:13:11.880Z,6.90
2022-07-30T06:14:11.832Z,8.00
2022-07-30T06:15:11.822Z,8.40
2022-07-30T06:16:11.841Z,7.10
2022-07-30T06:17:11.789Z,8.70
2022-07-30T06:18:11.805Z,8.10
2022-07-30T06:19:19.522Z,7.00
2022-07-30T06:20:12.801Z,7.50
2022-07-30T06:21:11.784Z,7.00
2022-07-30T06:22:11.717Z,6.60
2022-07-30T06:23:11.716Z,6.00
2022-07-30T06:24:11.695Z,7.10
2022-07-30T06:25:11.698Z,8.00
2022-07-30T06:26:11.710Z,8.60
2022-07-30T06:27:11.678Z,6.90
2022-07-30T06:28:35.907Z,7.70
2022-07-30T06:29:13.410Z,8.10
2022-07-30T06:30:11.638Z,11.00
2022-07-30T06:31:11.686Z,6.60
2022-07-30T06:32:11.587Z,7.80
2022-07-30T06:33:11.635Z,6.20
2022-07-30T06:34:11.618Z,8.00
2022-07-30T06:35:11.566Z,7.70
2022-07-30T06:36:13.765Z,7.60
2022-07-30T06:37:11.525Z,7.80
2022-07-30T06:38:11.547Z,8.60
2022-07-30T06:39:11.496Z,8.70
2022-07-30T06:40:11.498Z,6.90
2022-07-30T06:41:11.516Z,6.60
2022-07-30T06:42:11.488Z,8.90
2022-07-30T06:43:11.491Z,6.80
2022-07-30T06:44:11.479Z,7.70
2022-07-30T06:45:11.435Z,8.40
2022-07-30T06:46:11.507Z,8.80
2022-07-30T06:47:11.816Z,7.70
2022-07-30T06:48:11.391Z,7.50
2022-07-30T06:49:11.484Z,7.30
2022-07-30T06:50:11.362Z,7.10
2022-07-30T06:51:11.418Z,5.70
2022-07-30T06:52:14.526Z,8.70
2022-07-30T06:53:12.312Z,5.10
2022-07-30T06:54:11.301Z,8.00
2022-07-30T06:55:11.302Z,6.40
2022-07-30T06:56:11.333Z,7.50
2022-07-30T06:57:11.262Z,7.40
2022-07-30T06:58:11.250Z,8.90
2022-07-30T06:59:11.243Z,7.80
2022-07-30T07:00:11.223Z,8.40
2022-07-30T07:01:11.691Z,8.00
2022-07-30T07:02:11.190Z,8.00
2022-07-30T07:03:11.971Z,8.20
2022-07-30T07:04:11.208Z,9.10
2022-07-30T07:05:11.177Z,7.60
2022-07-30T07:06:11.177Z,8.20
2022-07-30T07:07:12.638Z,6.80
2022-07-30T07:08:11.138Z,6.20
2022-07-30T07:09:11.180Z,8.00
2022-07-30T07:10:11.128Z,9.50
2022-07-30T07:11:11.070Z,8.60
2022-07-30T07:12:11.116Z,6.00
2022-07-30T07:13:11.086Z,7.90
2022-07-30T07:14:11.066Z,8.50
2022-07-30T07:15:11.032Z,7.60
2022-07-30T07:16:11.016Z,5.40
2022-07-30T07:17:11.066Z,9.40
2022-07-30T07:18:10.986Z,7.10
2022-07-30T07:19:10.995Z,7.70
2022-07-30T07:20:10.983Z,8.50
2022-07-30T07:21:10.947Z,9.00
2022-07-30T07:22:10.934Z,9.10
2022-07-30T07:23:11.940Z,6.90
2022-07-30T07:24:10.985Z,6.50
2022-07-30T07:25:10.923Z,6.30
2022-07-30T07:26:10.898Z,7.20
2022-07-30T07:27:15.280Z,7.00
2022-07-30T07:28:13.390Z,7.20
2022-07-30T07:29:10.870Z,6.70
2022-07-30T07:30:10.832Z,6.60
2022-07-30T07:31:10.898Z,7.50
2022-07-30T07:32:10.864Z,6.90
2022-07-30T07:33:10.793Z,7.20
2022-07-30T07:34:14.260Z,5.90
2022-07-30T07:35:11.780Z,7.00
2022-07-30T07:36:10.804Z,7.90
2022-07-30T07:37:10.731Z,6.30
2022-07-30T07:38:10.721Z,7.50
2022-07-30T07:39:12.909Z,7.70
2022-07-30T07:40:10.724Z,5.10
2022-07-30T07:41:10.684Z,6.90
2022-07-30T07:42:10.673Z,7.20
2022-07-30T07:43:10.667Z,6.10
2022-07-30T07:44:10.718Z,6.60
2022-07-30T07:45:10.630Z,8.40
2022-07-30T07:46:10.712Z,9.00
2022-07-30T07:47:10.609Z,6.90
2022-07-30T07:48:10.604Z,7.40
2022-07-30T07:49:10.707Z,7.20
2022-07-30T07:50:10.570Z,6.80
2022-07-30T07:51:10.559Z,6.40
2022-07-30T07:52:10.580Z,6.00
2022-07-30T07:53:10.554Z,6.00
2022-07-30T07:54:21.136Z,9.10
2022-07-30T07:55:11.509Z,8.10
2022-07-30T07:56:10.520Z,8.50
2022-07-30T07:57:10.590Z,7.10
2022-07-30T07:58:10.491Z,6.90
2022-07-30T07:59:10.447Z,6.40
2022-07-30T08:00:10.449Z,8.00
2022-07-30T08:01:10.546Z,8.80
2022-07-30T08:02:10.517Z,9.00
2022-07-30T08:03:10.420Z,7.60
2022-07-30T08:04:10.751Z,6.50
2022-07-30T08:05:10.388Z,6.90
2022-07-30T08:06:14.731Z,7.10
2022-07-30T08:07:10.409Z,5.70
2022-07-30T08:08:10.358Z,5.30
2022-07-30T08:09:10.339Z,8.10
2022-07-30T08:10:10.353Z,7.80
2022-07-30T08:11:10.309Z,8.10
2022-07-30T08:12:10.286Z,6.20
2022-07-30T08:13:51.989Z,6.80
2022-07-30T08:14:11.266Z,7.80
2022-07-30T08:15:10.254Z,8.60
2022-07-30T08:16:11.447Z,7.10
2022-07-30T08:17:10.383Z,8.60
2022-07-30T08:18:10.214Z,6.80
2022-07-30T08:19:10.205Z,9.10
2022-07-30T08:20:10.227Z,8.00
2022-07-30T08:21:10.203Z,6.80
2022-07-30T08:22:10.184Z,7.10
2022-07-30T08:23:10.145Z,6.50
2022-07-30T08:24:10.152Z,7.30
2022-07-30T08:25:10.185Z,8.40
2022-07-30T08:26:10.130Z,10.30
2022-07-30T08:27:10.167Z,6.50
2022-07-30T08:28:35.264Z,6.70
2022-07-30T08:29:15.421Z,7.60
2022-07-30T08:30:11.064Z,6.40
2022-07-30T08:31:10.066Z,7.90
2022-07-30T08:32:10.065Z,7.50
2022-07-30T08:33:10.044Z,7.30
2022-07-30T08:34:10.025Z,6.50
2022-07-30T08:35:10.016Z,6.40
2022-07-30T08:36:10.423Z,6.10
2022-07-30T08:37:09.980Z,9.70
2022-07-30T08:38:09.961Z,6.50
2022-07-30T08:39:09.939Z,8.60
2022-07-30T08:40:09.952Z,9.20
2022-07-30T08:41:09.940Z,7.20
2022-07-30T08:42:09.951Z,7.10
2022-07-30T08:43:09.890Z,8.20
2022-07-30T08:44:12.663Z,7.40
2022-07-30T08:45:09.876Z,7.90
2022-07-30T08:46:09.878Z,9.20
2022-07-30T08:47:09.899Z,7.10
2022-07-30T08:48:13.604Z,6.10
2022-07-30T08:49:11.574Z,7.40
2022-07-30T08:50:09.801Z,7.50
2022-07-30T08:51:09.804Z,6.10
2022-07-30T08:52:09.797Z,6.60
2022-07-30T08:53:09.809Z,6.20
2022-07-30T08:54:09.771Z,6.90
2022-07-30T08:55:09.736Z,7.00
2022-07-30T08:56:09.724Z,7.60
2022-07-30T08:57:09.777Z,8.10
2022-07-30T08:58:09.716Z,7.30
2022-07-30T08:59:09.724Z,7.50
2022-07-30T09:00:09.665Z,8.00
2022-07-30T09:01:09.692Z,7.10
2022-07-30T09:02:12.559Z,7.20
2022-07-30T09:03:09.655Z,7.40
2022-07-30T09:04:09.647Z,5.60
2022-07-30T09:05:09.612Z,6.20
2022-07-30T09:06:09.605Z,8.90
2022-07-30T09:07:09.625Z,6.30
2022-07-30T09:08:09.588Z,6.30
2022-07-30T09:09:09.634Z,7.90
2022-07-30T09:10:09.556Z,6.40
2022-07-30T09:11:09.540Z,5.90
2022-07-30T09:12:09.570Z,7.70
2022-07-30T09:13:09.511Z,7.30
2022-07-30T09:14:09.533Z,5.70
2022-07-30T09:15:09.492Z,7.10
2022-07-30T09:16:09.539Z,6.00
2022-07-30T09:17:09.644Z,7.00
2022-07-30T09:18:09.463Z,7.30
2022-07-30T09:19:09.462Z,5.70
2022-07-30T09:20:09.423Z,7.10
2022-07-30T09:21:09.410Z,6.10
2022-07-30T09:22:09.422Z,7.40
2022-07-30T09:23:09.393Z,5.90
2022-07-30T09:24:09.382Z,8.10
2022-07-30T09:25:09.391Z,10.00
2022-07-30T09:26:09.359Z,6.10
2022-07-30T09:27:09.468Z,7.60
2022-07-30T09:28:15.782Z,7.50
2022-07-30T09:29:10.319Z,7.10
2022-07-30T09:30:09.292Z,7.40
2022-07-30T09:31:09.298Z,6.20
2022-07-30T09:32:09.292Z,6.60
2022-07-30T09:33:09.268Z,5.10
2022-07-30T09:34:09.241Z,7.10
2022-07-30T09:35:09.230Z,8.90
2022-07-30T09:36:09.227Z,6.60
2022-07-30T09:37:10.472Z,6.60
2022-07-30T09:38:09.197Z,6.70
2022-07-30T09:39:09.183Z,7.50
2022-07-30T09:40:09.208Z,6.60
2022-07-30T09:41:29.129Z,5.30
2022-07-30T09:42:10.167Z,6.80
2022-07-30T09:43:09.135Z,5.60
2022-07-30T09:44:09.117Z,7.40
2022-07-30T09:45:09.173Z,5.90
2022-07-30T09:46:09.085Z,7.10
2022-07-30T09:47:09.156Z,5.80
2022-07-30T09:48:09.066Z,4.50
2022-07-30T09:49:09.119Z,6.50
2022-07-30T09:50:09.076Z,7.50
2022-07-30T09:51:15.704Z,6.10
2022-07-30T09:52:10.435Z,5.60
2022-07-30T09:53:09.336Z,5.50
2022-07-30T09:54:08.983Z,6.00
2022-07-30T09:55:09.024Z,6.70
2022-07-30T09:56:08.987Z,5.00
2022-07-30T09:57:25.602Z,5.70
2022-07-30T09:58:09.933Z,5.30
2022-07-30T09:59:18.604Z,5.60
2022-07-30T10:00:09.922Z,4.10
2022-07-30T10:01:08.894Z,5.90
2022-07-30T10:02:10.258Z,6.90
2022-07-30T10:03:12.590Z,7.40
2022-07-30T10:04:09.863Z,5.60
2022-07-30T10:05:08.849Z,5.40
2022-07-30T10:06:08.870Z,6.30
2022-07-30T10:07:08.854Z,6.20
2022-07-30T10:08:16.454Z,5.40
2022-07-30T10:09:14.180Z,6.40
2022-07-30T10:10:09.808Z,6.80
2022-07-30T10:11:09.670Z,5.90
2022-07-30T10:12:10.495Z,5.60
2022-07-30T10:13:08.741Z,6.30
2022-07-30T10:14:08.730Z,5.70
2022-07-30T10:15:08.709Z,6.40
2022-07-30T10:16:08.734Z,4.50
2022-07-30T10:17:08.688Z,5.20
2022-07-30T10:18:08.719Z,3.40
2022-07-30T10:19:13.763Z,3.90
2022-07-30T10:20:09.661Z,5.10
2022-07-30T10:21:08.643Z,4.30
2022-07-30T10:22:08.668Z,5.00
2022-07-30T10:23:09.223Z,6.10
2022-07-30T10:24:08.591Z,4.80
2022-07-30T10:25:08.665Z,3.10
2022-07-30T10:26:08.589Z,5.40
2022-07-30T10:27:08.584Z,4.50
2022-07-30T10:28:08.566Z,4.90
2022-07-30T10:29:08.546Z,6.20
2022-07-30T10:30:08.562Z,5.60
2022-07-30T10:31:47.978Z,6.50
2022-07-30T10:32:09.570Z,6.10
2022-07-30T10:33:08.504Z,4.20
2022-07-30T10:34:09.540Z,4.50
2022-07-30T10:35:08.497Z,5.30
2022-07-30T10:36:09.101Z,5.00
2022-07-30T10:37:08.478Z,6.20
2022-07-30T10:38:08.435Z,5.10
2022-07-30T10:39:08.404Z,4.80
2022-07-30T10:40:08.429Z,4.10
2022-07-30T10:41:08.414Z,4.60
2022-07-30T10:42:08.372Z,4.70
2022-07-30T10:43:08.413Z,5.60
2022-07-30T10:44:08.392Z,4.90
2022-07-30T10:45:08.353Z,4.00
2022-07-30T10:46:20.095Z,3.90
2022-07-30T10:47:10.404Z,4.50
2022-07-30T10:48:08.417Z,5.10
2022-07-30T10:49:17.641Z,4.80
2022-07-30T10:50:10.589Z,3.40
2022-07-30T10:51:08.262Z,5.10
2022-07-30T10:52:08.247Z,4.80
2022-07-30T10:53:08.281Z,5.20
2022-07-30T10:54:08.257Z,5.90
2022-07-30T10:55:08.254Z,4.10
2022-07-30T10:56:08.231Z,4.00
2022-07-30T10:57:08.191Z,5.20
2022-07-30T10:58:08.162Z,4.40
2022-07-30T10:59:08.453Z,5.40
2022-07-30T11:00:08.162Z,3.40
2022-07-30T11:01:17.834Z,4.40
2022-07-30T11:02:09.121Z,4.70
2022-07-30T11:03:15.032Z,6.10
2022-07-30T11:04:09.099Z,5.00
2022-07-30T11:05:08.093Z,5.10
2022-07-30T11:06:08.067Z,6.60
2022-07-30T11:07:08.067Z,3.80
2022-07-30T11:08:08.036Z,4.10
2022-07-30T11:09:08.050Z,4.40
2022-07-30T11:10:09.116Z,4.70
2022-07-30T11:11:19.601Z,5.10
2022-07-30T11:12:09.013Z,6.00
2022-07-30T11:13:08.012Z,4.60
2022-07-30T11:14:07.983Z,4.90
2022-07-30T11:15:19.271Z,4.60
2022-07-30T11:16:08.949Z,6.90
2022-07-30T11:17:08.020Z,4.90
2022-07-30T11:18:11.461Z,5.20
2022-07-30T11:20:11.987Z,3.60
2022-07-30T11:21:07.879Z,4.90
2022-07-30T11:22:08.916Z,4.80
2022-07-30T11:23:07.878Z,4.40
2022-07-30T11:24:07.836Z,5.70
2022-07-30T11:25:12.978Z,3.30
2022-07-30T11:26:14.338Z,3.50
2022-07-30T11:27:08.927Z,3.20
2022-07-30T11:28:07.797Z,3.60
2022-07-30T11:29:07.784Z,4.10
2022-07-30T11:30:07.795Z,3.20
2022-07-30T11:31:10.475Z,5.00
2022-07-30T11:32:07.862Z,5.10
2022-07-30T11:33:07.774Z,3.60
2022-07-30T11:34:07.724Z,2.80
2022-07-30T11:35:07.714Z,3.90
2022-07-30T11:36:07.690Z,4.60
2022-07-30T11:37:18.231Z,3.80
2022-07-30T11:38:08.687Z,3.20
2022-07-30T11:39:07.704Z,3.90
2022-07-30T11:40:07.712Z,3.70
2022-07-30T11:41:07.627Z,3.10
2022-07-30T11:42:07.603Z,5.00
2022-07-30T11:43:07.642Z,6.20
2022-07-30T11:44:07.592Z,4.50
2022-07-30T11:45:07.590Z,4.10
2022-07-30T11:46:07.595Z,4.00
2022-07-30T11:47:07.553Z,4.40
2022-07-30T11:48:07.543Z,3.50
2022-07-30T11:49:07.596Z,3.20
2022-07-30T11:50:07.518Z,4.90
2022-07-30T11:51:07.502Z,2.50
2022-07-30T11:52:07.520Z,6.20
2022-07-30T11:53:07.564Z,3.20
2022-07-30T11:54:07.464Z,2.90
2022-07-30T11:55:07.519Z,3.40
2022-07-30T11:56:07.450Z,4.20
2022-07-30T11:57:07.411Z,3.30
2022-07-30T11:58:07.432Z,6.50
2022-07-30T11:59:07.393Z,3.50
2022-07-30T12:00:07.411Z,3.60
2022-07-30T12:01:09.486Z,4.50
2022-07-30T12:02:07.362Z,4.70
2022-07-30T12:03:07.351Z,2.90
2022-07-30T12:04:07.340Z,4.80
2022-07-30T12:05:07.347Z,2.70
2022-07-30T12:06:07.348Z,3.80
2022-07-30T12:07:07.300Z,4.20
2022-07-30T12:08:07.272Z,3.20
2022-07-30T12:09:07.281Z,3.20
2022-07-30T12:10:07.282Z,4.40
2022-07-30T12:11:07.249Z,5.70
2022-07-30T12:12:07.236Z,4.00
2022-07-30T12:13:07.764Z,2.80
2022-07-30T12:14:07.218Z,2.80
2022-07-30T12:15:07.212Z,3.60
2022-07-30T12:20:30.482Z,3.80
2022-07-30T12:25:54.343Z,19.70
2022-07-30T12:26:54.332Z,17.00
2022-07-30T12:27:52.691Z,3.30
2022-07-30T12:28:52.640Z,2.90
2022-07-30T12:29:52.627Z,2.90
2022-07-30T12:30:52.891Z,3.80
2022-07-30T12:31:52.604Z,3.20
2022-07-30T12:32:52.630Z,2.80
2022-07-30T12:33:52.562Z,4.70
2022-07-30T12:34:52.581Z,3.50
2022-07-30T12:35:52.568Z,4.90
2022-07-30T12:36:52.551Z,3.20
2022-07-30T12:37:52.543Z,3.50
2022-07-30T12:38:52.542Z,4.80
2022-07-30T12:39:52.496Z,4.40
2022-07-30T12:40:52.482Z,6.20
2022-07-30T12:41:52.503Z,3.60
2022-07-30T12:42:52.543Z,2.90
2022-07-30T12:46:04.164Z,4.10
2022-07-30T12:51:28.369Z,2.80
2022-07-30T12:52:27.823Z,3.20
2022-07-30T12:53:28.387Z,3.80
2022-07-30T12:54:26.625Z,3.10
2022-07-30T12:55:26.600Z,3.50
2022-07-30T12:56:26.576Z,3.30
2022-07-30T12:57:26.612Z,3.30
2022-07-30T12:58:26.597Z,3.20
2022-07-30T12:59:26.537Z,5.80
2022-07-30T13:00:26.544Z,3.10
2022-07-30T13:01:26.574Z,4.20
2022-07-30T13:02:26.615Z,2.70
2022-07-30T13:03:26.506Z,4.10
2022-07-30T13:04:26.490Z,3.20
2022-07-30T13:05:26.551Z,3.40
2022-07-30T13:06:26.456Z,3.60
2022-07-30T13:07:26.466Z,2.60
2022-07-30T13:08:26.436Z,3.90
2022-07-30T13:09:26.437Z,3.30
2022-07-30T13:10:30.761Z,2.80
2022-07-30T13:11:27.451Z,2.70
2022-07-30T13:12:26.492Z,2.20
2022-07-30T13:13:26.390Z,3.70
2022-07-30T13:14:26.603Z,2.80
2022-07-30T13:15:26.384Z,5.70
2022-07-30T13:16:26.345Z,3.60
2022-07-30T13:17:26.385Z,2.70
2022-07-30T13:18:26.313Z,3.50
2022-07-30T13:19:26.315Z,3.60
2022-07-30T13:20:26.336Z,3.40
2022-07-30T13:21:26.303Z,2.60
2022-07-30T13:22:26.323Z,2.10
2022-07-30T13:23:26.332Z,3.30
2022-07-30T13:24:26.243Z,3.50
2022-07-30T13:25:26.268Z,3.80
2022-07-30T13:26:27.212Z,4.00
2022-07-30T13:27:26.258Z,5.10
2022-07-30T13:28:26.245Z,2.40
2022-07-30T13:29:26.496Z,4.20
2022-07-30T13:30:26.367Z,4.50
2022-07-30T13:31:26.164Z,4.50
2022-07-30T13:32:26.146Z,3.20
2022-07-30T13:33:26.143Z,3.10
2022-07-30T13:34:26.115Z,2.20